createdAt,value
2019-02-02T00:02:48.769Z,4.50
2019-02-02T00:07:51.340Z,4.50
2019-02-02T00:12:54.160Z,4.40
2019-02-02T00:17:56.806Z,4.30
2019-02-02T00:23:07.915Z,4.20
2019-02-02T00:28:10.699Z,4.10
2019-02-02T00:33:13.395Z,3.90
2019-02-02T00:38:15.925Z,3.70
2019-02-02T00:43:18.432Z,3.40
2019-02-02T00:48:20.965Z,3.10
2019-02-02T00:53:23.670Z,2.80
2019-02-02T00:58:26.206Z,2.40
2019-02-02T01:03:28.784Z,2.10
2019-02-02T01:08:31.464Z,1.90
2019-02-02T01:13:36.361Z,1.70
2019-02-02T01:18:38.947Z,1.50
2019-02-02T01:23:41.592Z,1.30
2019-02-02T01:28:44.506Z,1.10
2019-02-02T01:33:47.298Z,1.00
2019-02-02T01:38:49.725Z,1.00
2019-02-02T01:43:52.268Z,1.00
2019-02-02T01:48:54.861Z,1.00
2019-02-02T01:53:57.584Z,1.10
2019-02-02T01:59:00.162Z,1.20
2019-02-02T02:04:02.744Z,1.50
2019-02-02T02:09:08.386Z,1.80
2019-02-02T02:14:11.125Z,2.00
2019-02-02T02:19:13.899Z,2.30
2019-02-02T02:24:16.531Z,2.40
2019-02-02T02:29:19.223Z,2.50
2019-02-02T02:34:21.715Z,2.70
2019-02-02T02:39:24.219Z,2.90
2019-02-02T02:44:26.779Z,3.00
2019-02-02T02:49:29.338Z,3.00
2019-02-02T02:54:32.144Z,3.00
2019-02-02T02:59:34.831Z,3.00
2019-02-02T03:04:37.408Z,3.10
2019-02-02T03:09:39.893Z,3.10
2019-02-02T03:14:42.475Z,3.20
2019-02-02T03:19:44.944Z,3.20
2019-02-02T03:24:47.660Z,3.20
2019-02-02T03:29:50.270Z,3.20
2019-02-02T03:34:52.756Z,3.30
2019-02-02T03:39:55.237Z,3.20
2019-02-02T03:44:57.760Z,3.30
2019-02-02T03:50:00.497Z,3.20
2019-02-02T03:55:05.190Z,3.20
2019-02-02T04:00:10.715Z,3.10
2019-02-02T04:05:15.936Z,3.20
2019-02-02T04:10:18.747Z,3.20
2019-02-02T04:15:22.783Z,3.30
2019-02-02T04:20:25.324Z,3.30
2019-02-02T04:25:27.987Z,3.40
2019-02-02T04:30:30.532Z,3.40
2019-02-02T04:35:33.093Z,3.50
2019-02-02T04:40:35.627Z,3.50
2019-02-02T04:45:38.593Z,3.50
2019-02-02T04:50:41.410Z,3.50
2019-02-02T04:55:44.447Z,3.50
2019-02-02T05:00:47.004Z,3.40
2019-02-02T05:05:50.250Z,3.40
2019-02-02T05:10:52.677Z,3.40
2019-02-02T05:15:55.223Z,3.40
2019-02-02T05:20:57.992Z,3.50
2019-02-02T05:26:00.764Z,3.50
2019-02-02T05:31:03.286Z,3.60
2019-02-02T05:36:05.743Z,3.60
2019-02-02T05:41:08.392Z,3.60
2019-02-02T05:46:11.015Z,3.60
2019-02-02T05:51:13.739Z,3.70
2019-02-02T05:56:16.479Z,3.80
2019-02-02T06:01:20.973Z,3.80
2019-02-02T06:06:23.531Z,3.80
2019-02-02T06:11:26.055Z,3.90
2019-02-02T06:16:28.547Z,4.10
2019-02-02T06:21:31.068Z,4.20
2019-02-02T06:26:33.731Z,4.30
2019-02-02T06:31:36.338Z,4.30
2019-02-02T06:36:38.947Z,4.40
2019-02-02T06:41:41.419Z,4.30
2019-02-02T06:46:44.001Z,4.40
2019-02-02T06:51:46.806Z,4.30
2019-02-02T06:56:49.211Z,4.30
2019-02-02T07:01:53.519Z,4.20
2019-02-02T07:06:56.167Z,4.30
2019-02-02T07:12:03.199Z,4.30
2019-02-02T07:22:51.278Z,4.50
2019-02-02T07:27:53.990Z,4.60
2019-02-02T07:33:04.955Z,4.60
2019-02-02T07:38:14.323Z,4.80
2019-02-02T07:43:16.855Z,4.90
2019-02-02T07:48:19.502Z,5.10
2019-02-02T07:53:21.992Z,5.30
2019-02-02T07:58:25.427Z,5.40
2019-02-02T08:03:30.141Z,5.50
2019-02-02T08:08:32.624Z,5.50
2019-02-02T08:13:35.122Z,5.60
2019-02-02T08:18:39.714Z,5.60
2019-02-02T08:23:42.285Z,5.70
2019-02-02T08:28:45.327Z,5.80
2019-02-02T08:33:47.843Z,5.90
2019-02-02T08:38:53.438Z,6.00
2019-02-02T08:43:56.719Z,6.20
2019-02-02T08:48:59.139Z,6.30
2019-02-02T08:54:03.574Z,6.20
2019-02-02T08:59:07.377Z,6.30
2019-02-02T09:04:10.198Z,6.20
2019-02-02T09:09:13.351Z,6.00
2019-02-02T09:14:15.919Z,5.90
2019-02-02T09:19:18.807Z,6.00
2019-02-02T09:24:21.298Z,6.20
2019-02-02T09:29:24.508Z,6.20
2019-02-02T09:34:28.900Z,6.20
2019-02-02T09:39:45.510Z,6.30
2019-02-02T09:44:48.085Z,6.50
2019-02-02T09:49:50.704Z,6.70
2019-02-02T09:54:53.211Z,6.80
2019-02-02T10:00:23.261Z,7.00
2019-02-02T10:05:44.043Z,7.00
2019-02-02T10:11:05.332Z,7.10
2019-02-02T10:16:26.267Z,7.30
2019-02-02T10:21:49.701Z,7.40
2019-02-02T10:27:09.653Z,7.50
2019-02-02T10:32:14.106Z,7.70
2019-02-02T10:37:17.574Z,7.70
2019-02-02T10:42:20.866Z,7.80
2019-02-02T10:47:23.945Z,8.00
2019-02-02T10:52:26.790Z,7.90
2019-02-02T10:57:29.551Z,7.70
2019-02-02T11:02:32.537Z,7.40
2019-02-02T11:07:35.853Z,7.40
2019-02-02T11:12:40.286Z,7.90
2019-02-02T11:17:43.280Z,8.20
2019-02-02T11:22:47.945Z,8.50
2019-02-02T11:27:50.656Z,9.10
2019-02-02T11:32:53.267Z,9.40
2019-02-02T11:37:57.256Z,9.90
2019-02-02T11:43:01.108Z,9.90
2019-02-02T11:48:04.014Z,9.80
2019-02-02T11:53:08.272Z,9.80
2019-02-02T11:58:12.066Z,9.60
2019-02-02T12:03:14.589Z,9.70
2019-02-02T12:08:17.540Z,9.90
2019-02-02T12:13:20.471Z,10.00
2019-02-02T12:18:24.197Z,10.20
2019-02-02T12:23:26.800Z,10.20
2019-02-02T12:28:30.612Z,10.40
2019-02-02T12:33:33.201Z,10.70
2019-02-02T12:38:36.002Z,10.70
2019-02-02T12:43:38.504Z,10.90
2019-02-02T12:48:41.341Z,11.10
2019-02-02T12:53:43.820Z,11.40
2019-02-02T12:58:46.335Z,11.50
2019-02-02T13:04:00.971Z,11.20
2019-02-02T13:08:54.126Z,11.00
2019-02-02T13:13:58.592Z,11.00
2019-02-02T13:19:01.804Z,11.20
2019-02-02T13:24:06.335Z,11.30
2019-02-02T13:29:08.831Z,11.20
2019-02-02T13:34:11.195Z,10.90
2019-02-02T13:39:15.139Z,10.60
2019-02-02T13:44:17.602Z,10.30
2019-02-02T13:49:20.212Z,10.20
2019-02-02T13:54:22.767Z,10.10
2019-02-02T13:59:25.492Z,9.90
2019-02-02T14:04:28.338Z,9.60
2019-02-02T14:09:31.406Z,9.40
2019-02-02T14:14:34.383Z,9.40
2019-02-02T14:19:38.851Z,9.30
2019-02-02T14:24:42.284Z,9.40
2019-02-02T14:29:48.071Z,9.50
2019-02-02T14:34:53.737Z,9.40
2019-02-02T14:39:56.191Z,9.50
2019-02-02T14:45:15.698Z,9.60
2019-02-02T14:50:20.923Z,9.40
2019-02-02T14:55:26.196Z,9.30
2019-02-02T15:00:30.218Z,9.30
2019-02-02T15:05:42.610Z,9.20
2019-02-02T15:10:37.335Z,9.00
2019-02-02T15:15:39.901Z,8.60
2019-02-02T15:20:43.794Z,8.20
2019-02-02T15:25:46.651Z,8.00
2019-02-02T15:37:06.338Z,7.10
2019-02-02T15:42:10.362Z,6.80
2019-02-02T15:47:13.454Z,6.60
2019-02-02T15:52:16.316Z,6.40
2019-02-02T16:03:52.875Z,6.00
2019-02-02T16:09:13.807Z,6.00
2019-02-02T16:14:16.808Z,6.10
2019-02-02T16:19:37.827Z,6.10
2019-02-02T16:24:40.264Z,6.00
2019-02-02T16:29:42.668Z,5.90
2019-02-02T16:34:45.227Z,5.80
2019-02-02T16:39:47.763Z,5.80
2019-02-02T16:44:50.377Z,5.80
2019-02-02T16:49:52.879Z,5.90
2019-02-02T16:54:55.307Z,6.00
2019-02-02T16:59:57.895Z,6.10
2019-02-02T17:05:00.487Z,6.00
2019-02-02T17:10:05.505Z,6.00
2019-02-02T17:15:09.144Z,6.00
2019-02-02T17:20:14.670Z,5.90
2019-02-02T17:25:18.636Z,5.90
2019-02-02T17:30:23.027Z,5.90
2019-02-02T17:35:26.411Z,6.00
2019-02-02T17:40:29.968Z,6.10
2019-02-02T17:51:31.680Z,6.10
2019-02-02T17:56:42.483Z,6.20
2019-02-02T18:01:45.515Z,6.10
2019-02-02T18:06:54.599Z,6.10
2019-02-02T18:11:59.752Z,6.10
2019-02-02T18:17:12.785Z,6.10
2019-02-02T18:22:15.842Z,6.10
2019-02-02T18:27:18.459Z,6.10
2019-02-02T18:32:21.498Z,6.10
2019-02-02T18:37:24.242Z,6.10
2019-02-02T18:42:26.804Z,6.10
2019-02-02T18:47:31.936Z,6.20
2019-02-02T18:52:36.675Z,6.20
2019-02-02T18:57:42.399Z,6.10
2019-02-02T19:02:45.420Z,6.10
2019-02-02T19:07:49.463Z,6.20
2019-02-02T19:12:52.327Z,6.30
2019-02-02T19:17:56.015Z,6.30
2019-02-02T19:22:58.646Z,6.30
2019-02-02T19:28:01.363Z,6.40
2019-02-02T19:33:05.472Z,6.30
2019-02-02T19:38:08.852Z,6.30
2019-02-02T19:43:14.099Z,6.20
2019-02-02T19:48:17.519Z,6.20
2019-02-02T19:53:20.191Z,6.30
2019-02-02T19:58:24.429Z,6.20
2019-02-02T20:03:30.671Z,6.10
2019-02-02T20:08:33.797Z,6.10
2019-02-02T20:13:39.568Z,6.10
2019-02-02T20:18:44.540Z,6.00
2019-02-02T20:23:47.528Z,5.90
2019-02-02T20:28:50.163Z,5.90
2019-02-02T20:33:55.618Z,5.90
2019-02-02T20:38:58.399Z,5.90
2019-02-02T20:50:19.147Z,5.80
2019-02-02T21:01:00.127Z,5.80
2019-02-02T21:06:19.005Z,5.90
2019-02-02T21:11:24.303Z,5.90
2019-02-02T21:16:27.872Z,5.90
2019-02-02T21:21:31.243Z,6.00
2019-02-02T21:26:44.355Z,6.00
2019-02-02T21:31:48.527Z,5.90
2019-02-02T21:36:51.257Z,5.80
2019-02-02T21:41:55.053Z,5.70
2019-02-02T21:46:57.868Z,5.60
2019-02-02T21:52:01.013Z,5.60
2019-02-02T21:57:03.829Z,5.60
2019-02-02T22:02:07.369Z,5.60
2019-02-02T22:07:10.138Z,5.50
2019-02-02T22:12:13.155Z,5.40
2019-02-02T22:17:15.975Z,5.40
2019-02-02T22:22:18.915Z,5.30
2019-02-02T22:27:21.968Z,5.20
2019-02-02T22:32:24.517Z,5.20
2019-02-02T22:37:28.090Z,5.30
2019-02-02T22:42:30.598Z,5.30
2019-02-02T22:47:33.151Z,5.20
2019-02-02T22:52:35.791Z,5.20
2019-02-02T22:57:38.648Z,5.10
2019-02-02T23:02:41.176Z,5.10
2019-02-02T23:08:44.833Z,5.00
2019-02-02T23:14:31.486Z,4.90
2019-02-02T23:19:34.984Z,4.80
2019-02-02T23:24:37.575Z,4.80
2019-02-02T23:29:40.196Z,4.70
2019-02-02T23:34:42.832Z,4.60
2019-02-02T23:39:45.420Z,4.60
2019-02-02T23:44:48.667Z,4.60
2019-02-02T23:49:51.210Z,4.60
2019-02-02T23:54:54.038Z,4.60
2019-02-02T23:59:56.607Z,4.50
